Moderators: jsumali2, richierich, ua900, PanAm_DC10, hOMSaR

 
Frontiercpt
Topic Author
Posts: 955
Joined: Tue Jun 08, 2004 9:47 am

US Airways 2802 Diverted To BFL

Sun Oct 14, 2007 5:27 pm

Hey everyone,

I just saw that US Airways 2802, enroute from PHX to SBA was diverted to BFL today. The US Airways website shows that it departed BFL at 9:33AM- anyone know why it was diverted? The flight is operated by a Mesa CRJ-200.

Thanks for any information!

~Sean  Smile
 
MCOflyer
Posts: 7088
Joined: Tue Jun 13, 2006 5:51 am

RE: US Airways 2802 Diverted To BFL

Sun Oct 14, 2007 5:38 pm

I am guessing mechanical or or a change of crew.

Hunter
Never be afraid to stand up for who you are.
 
kstatepilot
Posts: 114
Joined: Wed Mar 21, 2007 9:23 am

RE: US Airways 2802 Diverted To BFL

Sun Oct 14, 2007 5:41 pm

Looks like weather at SBA, they went to BFL, then on to SBA and now back PHX
 
Goldenshield
Posts: 5019
Joined: Sun Jan 14, 2001 3:45 pm

RE: US Airways 2802 Diverted To BFL

Sun Oct 14, 2007 5:45 pm

KSBA 141651Z 23005KT 7SM FG SCT001 OVC003 14/13 A2999 RMK AO2
KSBA 141643Z 23003KT 2SM FG SCT001 OVC003 14/13 A2998 RMK AO2
KSBA 141600Z 00000KT 1/4SM R07/1000V1400FT FG VV001 13/13 A2997 RMK AO2
KSBA 141553Z 00000KT 1/4SM R07/0800V1200FT FG OVC002 13/13 A2997 RMK AO2 SLP147 T01330133
KSBA 141459Z 00000KT 1/4SM R07/P6000FT FG OVC002 12/11 A2994 RMK AO2
KSBA 141453Z 00000KT 10SM CLR 12/11 A2994 RMK AO2 SLP138 F0G BANK ALONG THE SHORLINE T01170106 53006
KSBA 141353Z 00000KT 10SM CLR 09/08 A2993 RMK AO2 SLP135 T00890078

The weather dived at about 0800 local. It's typical for it to do so around this time of year.
Two all beef patties, special sauce, lettuce, cheese, pickles, onions on a sesame seed bun.
 
Frontiercpt
Topic Author
Posts: 955
Joined: Tue Jun 08, 2004 9:47 am

RE: US Airways 2802 Diverted To BFL

Sun Oct 14, 2007 5:50 pm

Thanks guys! Goldenshield- how do you read all of that? (besides FOG BANK ALONG THE SHORELINE) lol

~Sean
 
Goldenshield
Posts: 5019
Joined: Sun Jan 14, 2001 3:45 pm

RE: US Airways 2802 Diverted To BFL

Sun Oct 14, 2007 5:57 pm

Quoting Frontiercpt (Reply 4):
Goldenshield- how do you read all of that? (besides FOG BANK ALONG THE SHORELINE) lol

Years of experience. Plus, the FAA and ICAO have similar (and seperate) guidelines for how things are to be coded.
Two all beef patties, special sauce, lettuce, cheese, pickles, onions on a sesame seed bun.
 
Frontiercpt
Topic Author
Posts: 955
Joined: Tue Jun 08, 2004 9:47 am

RE: US Airways 2802 Diverted To BFL

Sun Oct 14, 2007 6:01 pm

Quoting Goldenshield (Reply 5):

Ah okay, cool  Smile

Sean

Popular Searches On Airliners.net

Top Photos of Last:   24 Hours  •  48 Hours  •  7 Days  •  30 Days  •  180 Days  •  365 Days  •  All Time

Military Aircraft Every type from fighters to helicopters from air forces around the globe

Classic Airliners Props and jets from the good old days

Flight Decks Views from inside the cockpit

Aircraft Cabins Passenger cabin shots showing seat arrangements as well as cargo aircraft interior

Cargo Aircraft Pictures of great freighter aircraft

Government Aircraft Aircraft flying government officials

Helicopters Our large helicopter section. Both military and civil versions

Blimps / Airships Everything from the Goodyear blimp to the Zeppelin

Night Photos Beautiful shots taken while the sun is below the horizon

Accidents Accident, incident and crash related photos

Air to Air Photos taken by airborne photographers of airborne aircraft

Special Paint Schemes Aircraft painted in beautiful and original liveries

Airport Overviews Airport overviews from the air or ground

Tails and Winglets Tail and Winglet closeups with beautiful airline logos